createdAt,value
2019-05-09T00:01:44.628Z,12.27
2019-05-09T00:04:14.639Z,12.11
2019-05-09T00:06:44.725Z,12.07
2019-05-09T00:09:14.522Z,12.05
2019-05-09T00:11:44.458Z,11.97
2019-05-09T00:14:14.393Z,11.91
2019-05-09T00:16:44.201Z,11.88
2019-05-09T00:19:14.249Z,11.91
2019-05-09T00:21:45.692Z,11.91
2019-05-09T00:24:15.628Z,11.90
2019-05-09T00:26:46.095Z,11.97
2019-05-09T00:29:24.193Z,12.16
2019-05-09T00:32:13.726Z,12.13
2019-05-09T00:35:05.329Z,12.14
2019-05-09T00:37:59.356Z,12.12
2019-05-09T00:40:29.740Z,12.14
2019-05-09T00:42:59.914Z,12.10
2019-05-09T00:45:54.083Z,12.20
2019-05-09T00:48:28.010Z,12.23
2019-05-09T00:50:57.878Z,12.18
2019-05-09T00:53:27.768Z,12.10
2019-05-09T00:55:57.867Z,12.16
2019-05-09T00:58:27.896Z,12.07
2019-05-09T01:00:57.795Z,12.05
2019-05-09T01:03:27.988Z,12.11
2019-05-09T01:05:58.266Z,12.04
2019-05-09T01:08:28.298Z,12.06
2019-05-09T01:11:09.343Z,12.07
2019-05-09T01:13:29.829Z,12.07
2019-05-09T01:15:59.902Z,12.04
2019-05-09T01:18:30.046Z,12.06
2019-05-09T01:20:59.930Z,12.04
2019-05-09T01:23:29.980Z,12.02
2019-05-09T01:26:00.003Z,11.91
2019-05-09T01:28:30.039Z,11.88
2019-05-09T01:31:00.004Z,11.88
2019-05-09T01:33:35.708Z,11.80
2019-05-09T01:36:05.719Z,11.89
2019-05-09T01:38:35.966Z,11.75
2019-05-09T01:41:06.328Z,11.75
2019-05-09T01:43:36.340Z,11.68
2019-05-09T01:46:07.045Z,11.63
2019-05-09T01:48:36.814Z,11.58
2019-05-09T01:51:07.249Z,11.65
2019-05-09T01:53:43.677Z,11.65
2019-05-09T01:56:14.058Z,11.48
2019-05-09T01:58:44.126Z,11.37
2019-05-09T02:01:14.157Z,11.33
2019-05-09T02:03:45.173Z,11.30
2019-05-09T02:06:15.109Z,11.27
2019-05-09T02:08:45.216Z,11.25
2019-05-09T02:11:15.517Z,11.24
2019-05-09T02:13:45.855Z,11.18
2019-05-09T02:16:49.570Z,11.19
2019-05-09T02:19:24.574Z,11.21
2019-05-09T02:21:54.428Z,11.21
2019-05-09T02:24:24.857Z,11.28
2019-05-09T02:26:54.866Z,11.33
2019-05-09T02:29:24.810Z,11.38
2019-05-09T02:31:54.924Z,11.38
2019-05-09T02:34:25.148Z,11.39
2019-05-09T02:36:55.036Z,11.31
2019-05-09T02:39:24.846Z,11.24
2019-05-09T02:42:04.882Z,11.23
2019-05-09T02:44:28.909Z,11.23
2019-05-09T02:47:09.659Z,11.20
2019-05-09T02:49:40.823Z,11.18
2019-05-09T02:52:11.366Z,11.21
2019-05-09T02:54:41.274Z,11.21
2019-05-09T02:57:11.287Z,11.18
2019-05-09T03:00:00.756Z,11.15
2019-05-09T03:02:48.977Z,11.16
2019-05-09T03:05:19.729Z,11.15
2019-05-09T03:07:49.937Z,11.16
2019-05-09T03:10:21.261Z,11.17
2019-05-09T03:12:51.283Z,11.21
2019-05-09T03:15:21.443Z,11.23
2019-05-09T03:17:51.565Z,11.26
2019-05-09T03:20:39.206Z,11.30
2019-05-09T03:23:09.358Z,11.33
2019-05-09T03:25:40.727Z,11.34
2019-05-09T03:28:22.709Z,11.35
2019-05-09T03:30:54.191Z,11.45
2019-05-09T03:33:24.621Z,11.37
2019-05-09T03:35:54.510Z,11.40
2019-05-09T03:38:24.735Z,11.40
2019-05-09T03:40:54.791Z,11.33
2019-05-09T03:43:27.314Z,11.35
2019-05-09T03:46:18.846Z,11.39
2019-05-09T03:48:51.988Z,11.40
2019-05-09T03:51:22.287Z,11.39
2019-05-09T03:53:52.066Z,11.48
2019-05-09T03:56:27.385Z,11.46
2019-05-09T03:58:58.165Z,11.51
2019-05-09T04:01:28.466Z,11.45
2019-05-09T04:03:58.796Z,11.44
2019-05-09T04:06:29.037Z,11.47
2019-05-09T04:08:59.295Z,11.50
2019-05-09T04:11:29.146Z,11.53
2019-05-09T04:14:03.451Z,11.62
2019-05-09T04:16:33.463Z,11.70
2019-05-09T04:19:04.020Z,11.70
2019-05-09T04:21:33.932Z,11.72
2019-05-09T04:24:04.026Z,11.76
2019-05-09T04:26:45.712Z,11.74
2019-05-09T04:29:15.587Z,11.83
2019-05-09T04:31:48.179Z,11.84
2019-05-09T04:34:18.301Z,11.85
2019-05-09T04:36:48.572Z,11.89
2019-05-09T04:39:23.373Z,11.90
2019-05-09T04:41:55.062Z,11.95
2019-05-09T04:44:57.096Z,11.98
2019-05-09T04:47:21.640Z,11.96
2019-05-09T04:49:52.023Z,11.99
2019-05-09T04:52:22.169Z,12.05
2019-05-09T04:54:52.494Z,12.12
2019-05-09T04:57:22.716Z,12.14
2019-05-09T04:59:52.739Z,12.20
2019-05-09T05:02:38.198Z,12.28
2019-05-09T05:05:08.769Z,12.38
2019-05-09T05:07:39.791Z,12.54
2019-05-09T05:10:10.207Z,12.62
2019-05-09T05:12:40.206Z,12.59
2019-05-09T05:15:11.081Z,12.48
2019-05-09T05:17:41.526Z,12.60
2019-05-09T05:20:15.537Z,12.72
2019-05-09T05:23:10.320Z,12.83
2019-05-09T05:25:40.159Z,12.85
2019-05-09T05:28:10.752Z,12.84
2019-05-09T05:30:41.320Z,12.92
2019-05-09T05:33:28.366Z,12.98
2019-05-09T05:36:00.239Z,12.99
2019-05-09T05:38:31.826Z,13.09
2019-05-09T05:41:03.322Z,13.12
2019-05-09T05:43:41.505Z,13.11
2019-05-09T05:46:31.118Z,13.27
2019-05-09T05:49:01.417Z,13.13
2019-05-09T05:51:34.749Z,13.15
2019-05-09T05:54:04.672Z,12.94
2019-05-09T05:56:34.534Z,13.12
2019-05-09T05:59:04.435Z,13.05
2019-05-09T06:01:34.788Z,13.24
2019-05-09T06:04:04.690Z,13.06
2019-05-09T06:06:37.345Z,13.18
2019-05-09T06:09:08.400Z,13.02
2019-05-09T06:11:38.955Z,13.22
2019-05-09T06:14:11.790Z,13.37
2019-05-09T06:16:40.666Z,13.42
2019-05-09T06:19:10.453Z,13.59
2019-05-09T06:21:42.265Z,13.79
2019-05-09T06:24:12.258Z,13.91
2019-05-09T06:26:42.180Z,14.06
2019-05-09T06:29:12.095Z,13.91
2019-05-09T06:31:42.148Z,14.08
2019-05-09T06:34:12.085Z,14.51
2019-05-09T06:36:42.293Z,15.39
2019-05-09T06:39:12.510Z,15.92
2019-05-09T06:41:43.119Z,15.87
2019-05-09T06:44:20.949Z,15.85
2019-05-09T06:46:58.544Z,16.01
2019-05-09T06:49:32.876Z,15.46
2019-05-09T06:52:02.848Z,15.19
2019-05-09T06:54:32.791Z,15.01
2019-05-09T06:57:02.624Z,15.78
2019-05-09T06:59:32.997Z,16.24
2019-05-09T07:02:08.069Z,16.51
2019-05-09T07:04:44.822Z,17.15
2019-05-09T07:07:24.441Z,17.45
2019-05-09T07:09:58.609Z,17.25
2019-05-09T07:12:28.146Z,17.47
2019-05-09T07:14:58.468Z,16.84
2019-05-09T07:17:31.700Z,17.09
2019-05-09T07:20:01.653Z,17.55
2019-05-09T07:22:38.995Z,18.12
2019-05-09T07:25:27.772Z,18.26
2019-05-09T07:27:58.635Z,17.82
2019-05-09T07:31:03.304Z,17.87
2019-05-09T07:33:44.447Z,17.13
2019-05-09T07:36:14.538Z,18.06
2019-05-09T07:38:44.275Z,19.03
2019-05-09T07:41:14.263Z,19.32
2019-05-09T07:43:44.179Z,20.32
2019-05-09T07:46:33.391Z,19.79
2019-05-09T07:49:07.857Z,19.38
2019-05-09T07:51:39.799Z,20.29
2019-05-09T07:54:21.226Z,19.66
2019-05-09T07:56:41.130Z,20.12
2019-05-09T07:59:10.920Z,19.08
2019-05-09T08:01:41.367Z,19.67
2019-05-09T08:04:11.658Z,20.29
2019-05-09T08:06:42.804Z,20.64
2019-05-09T08:09:12.906Z,20.35
2019-05-09T08:11:42.763Z,20.37
2019-05-09T08:14:13.066Z,20.06
2019-05-09T08:16:43.662Z,19.42
2019-05-09T08:19:14.041Z,19.42
2019-05-09T08:21:44.165Z,19.81
2019-05-09T08:24:14.111Z,20.21
2019-05-09T08:26:43.951Z,20.30
2019-05-09T08:29:14.175Z,20.85
2019-05-09T08:31:45.678Z,21.66
2019-05-09T08:34:15.635Z,21.28
2019-05-09T08:36:47.615Z,21.67
2019-05-09T08:39:20.468Z,21.65
2019-05-09T08:41:49.745Z,22.35
2019-05-09T08:44:20.017Z,22.07
2019-05-09T08:46:50.405Z,22.02
2019-05-09T08:49:23.994Z,22.52
2019-05-09T08:52:10.242Z,21.54
2019-05-09T08:54:43.631Z,20.59
2019-05-09T08:57:13.950Z,20.73
2019-05-09T08:59:47.030Z,20.15
2019-05-09T09:02:21.040Z,19.72
2019-05-09T09:04:48.965Z,19.21
2019-05-09T09:07:19.218Z,18.60
2019-05-09T09:09:50.389Z,19.34
2019-05-09T09:12:30.332Z,19.47
2019-05-09T09:14:52.446Z,19.61
2019-05-09T09:17:22.272Z,19.64
2019-05-09T09:19:52.093Z,20.69
2019-05-09T09:22:21.994Z,21.18
2019-05-09T09:24:55.612Z,21.91
2019-05-09T09:27:40.683Z,22.68
2019-05-09T09:30:25.386Z,22.00
2019-05-09T09:32:58.377Z,21.32
2019-05-09T09:35:30.453Z,20.52
2019-05-09T09:38:00.560Z,19.83
2019-05-09T09:40:30.448Z,19.45
2019-05-09T09:43:00.300Z,19.64
2019-05-09T09:45:30.117Z,19.98
2019-05-09T09:48:00.575Z,21.41
2019-05-09T09:50:30.844Z,21.75
2019-05-09T09:53:02.072Z,22.77
2019-05-09T09:55:32.185Z,22.60
2019-05-09T09:58:01.966Z,23.24
2019-05-09T10:01:03.533Z,22.92
2019-05-09T10:03:35.465Z,22.51
2019-05-09T10:06:05.843Z,23.45
2019-05-09T10:08:39.183Z,23.81
2019-05-09T10:11:08.696Z,24.18
2019-05-09T10:13:38.713Z,23.58
2019-05-09T10:16:31.952Z,23.91
2019-05-09T10:19:04.473Z,23.59
2019-05-09T10:21:45.180Z,23.84
2019-05-09T10:24:17.371Z,23.49
2019-05-09T10:27:09.624Z,23.14
2019-05-09T10:29:39.864Z,22.36
2019-05-09T10:32:12.513Z,23.21
2019-05-09T10:34:43.018Z,23.55
2019-05-09T10:37:13.362Z,21.60
2019-05-09T10:39:45.750Z,21.77
2019-05-09T10:42:32.966Z,22.96
2019-05-09T10:45:17.879Z,23.40
2019-05-09T10:47:48.411Z,23.58
2019-05-09T10:50:18.694Z,23.91
2019-05-09T10:52:58.447Z,24.23
2019-05-09T10:55:28.531Z,23.54
2019-05-09T10:58:02.320Z,23.96
2019-05-09T11:00:31.207Z,24.38
2019-05-09T11:03:01.146Z,24.75
2019-05-09T11:05:31.145Z,25.05
2019-05-09T11:08:01.913Z,25.07
2019-05-09T11:10:33.031Z,25.16
2019-05-09T11:13:07.516Z,24.19
2019-05-09T11:15:37.669Z,23.59
2019-05-09T11:18:08.276Z,23.76
2019-05-09T11:20:38.320Z,23.96
2019-05-09T11:23:09.550Z,23.25
2019-05-09T11:25:39.489Z,23.54
2019-05-09T11:28:12.567Z,23.66
2019-05-09T11:30:41.068Z,23.31
2019-05-09T11:33:11.083Z,24.50
2019-05-09T11:35:42.495Z,23.59
2019-05-09T11:38:29.232Z,23.56
2019-05-09T11:40:50.585Z,24.36
2019-05-09T11:43:20.460Z,23.44
2019-05-09T11:45:50.351Z,21.95
2019-05-09T11:48:21.787Z,21.73
2019-05-09T11:50:52.259Z,22.23
2019-05-09T11:53:22.109Z,22.79
2019-05-09T11:55:51.943Z,21.89
2019-05-09T11:58:21.680Z,21.67
2019-05-09T12:00:51.558Z,21.24
2019-05-09T12:03:21.459Z,21.90
2019-05-09T12:05:51.340Z,22.65
2019-05-09T12:08:21.309Z,23.17
2019-05-09T12:10:51.525Z,23.89
2019-05-09T12:13:21.738Z,24.55
2019-05-09T12:15:52.054Z,24.60
2019-05-09T12:18:22.005Z,24.59
2019-05-09T12:20:51.902Z,24.46
2019-05-09T12:23:21.736Z,24.36
2019-05-09T12:25:51.784Z,23.81
2019-05-09T12:28:21.680Z,23.83
2019-05-09T12:30:51.568Z,23.55
2019-05-09T12:33:21.354Z,23.65
2019-05-09T12:35:51.514Z,24.08
2019-05-09T12:38:21.475Z,22.79
2019-05-09T12:40:51.955Z,23.19
2019-05-09T12:43:21.999Z,22.57
2019-05-09T12:45:52.456Z,22.13
2019-05-09T12:48:22.246Z,22.26
2019-05-09T12:50:55.265Z,21.16
2019-05-09T12:53:27.998Z,20.85
2019-05-09T12:56:00.481Z,20.70
2019-05-09T12:58:31.039Z,21.00
2019-05-09T13:01:01.633Z,21.45
2019-05-09T13:03:33.300Z,22.29
2019-05-09T13:06:03.124Z,23.21
2019-05-09T13:08:33.092Z,22.92
2019-05-09T13:11:03.421Z,22.33
2019-05-09T13:13:33.798Z,21.96
2019-05-09T13:16:17.655Z,22.00
2019-05-09T13:19:07.842Z,22.10
2019-05-09T13:21:40.915Z,22.03
2019-05-09T13:24:11.980Z,22.58
2019-05-09T13:26:43.732Z,21.92
2019-05-09T13:29:14.040Z,21.48
2019-05-09T13:31:43.858Z,21.10
2019-05-09T13:34:13.869Z,21.13
2019-05-09T13:36:43.787Z,21.25
2019-05-09T13:39:13.961Z,21.37
2019-05-09T13:41:43.927Z,21.82
2019-05-09T13:44:14.202Z,22.49
2019-05-09T13:46:44.958Z,23.22
2019-05-09T13:49:15.732Z,23.15
2019-05-09T13:51:50.948Z,23.19
2019-05-09T13:54:18.569Z,23.08
2019-05-09T13:56:56.680Z,22.56
2019-05-09T13:59:21.604Z,22.39
2019-05-09T14:01:51.486Z,22.47
2019-05-09T14:04:21.454Z,23.03
2019-05-09T14:06:51.382Z,23.07
2019-05-09T14:09:22.403Z,22.66
2019-05-09T14:11:52.676Z,22.73
2019-05-09T14:14:22.924Z,21.58
2019-05-09T14:16:53.729Z,21.57
2019-05-09T14:19:35.927Z,21.79
2019-05-09T14:21:58.594Z,22.02
2019-05-09T14:24:28.582Z,22.03
2019-05-09T14:26:58.557Z,21.40
2019-05-09T14:29:31.498Z,20.83
2019-05-09T14:32:04.804Z,21.17
2019-05-09T14:34:38.165Z,20.97
2019-05-09T14:37:09.685Z,20.82
2019-05-09T14:39:54.492Z,20.84
2019-05-09T14:42:10.618Z,21.15
2019-05-09T14:44:41.063Z,20.90
2019-05-09T14:47:11.462Z,20.32
2019-05-09T14:49:44.441Z,20.36
2019-05-09T14:52:14.438Z,20.57
2019-05-09T14:54:44.580Z,20.98
2019-05-09T14:57:18.435Z,20.81
2019-05-09T14:59:58.280Z,20.66
2019-05-09T15:02:28.154Z,20.58
2019-05-09T15:04:58.691Z,20.09
2019-05-09T15:07:28.568Z,20.21
2019-05-09T15:10:00.413Z,20.36
2019-05-09T15:12:30.153Z,20.01
2019-05-09T15:15:00.137Z,20.09
2019-05-09T15:17:30.105Z,20.01
2019-05-09T15:20:01.264Z,19.51
2019-05-09T15:22:31.238Z,19.45
2019-05-09T15:25:01.103Z,19.61
2019-05-09T15:27:30.871Z,19.84
2019-05-09T15:30:09.196Z,19.97
2019-05-09T15:32:39.208Z,19.82
2019-05-09T15:35:09.465Z,19.97
2019-05-09T15:37:39.968Z,20.10
2019-05-09T15:40:10.414Z,19.95
2019-05-09T15:42:40.723Z,19.79
2019-05-09T15:45:10.994Z,19.90
2019-05-09T15:47:40.956Z,20.21
2019-05-09T15:50:19.333Z,20.50
2019-05-09T15:52:43.054Z,20.84
2019-05-09T15:55:13.110Z,21.05
2019-05-09T15:57:42.998Z,21.59
2019-05-09T16:00:15.438Z,22.01
2019-05-09T16:02:48.542Z,22.11
2019-05-09T16:05:18.280Z,21.92
2019-05-09T16:07:48.408Z,21.77
2019-05-09T16:10:18.873Z,21.16
2019-05-09T16:12:48.953Z,20.46
2019-05-09T16:15:19.093Z,20.38
2019-05-09T16:17:48.958Z,20.30
2019-05-09T16:20:35.947Z,20.28
2019-05-09T16:22:50.586Z,20.00
2019-05-09T16:25:20.549Z,19.85
2019-05-09T16:27:50.503Z,19.45
2019-05-09T16:30:21.139Z,18.85
2019-05-09T16:32:51.231Z,18.26
2019-05-09T16:35:21.067Z,18.09
2019-05-09T16:38:01.743Z,17.82
2019-05-09T16:40:22.587Z,17.53
2019-05-09T16:42:52.602Z,17.51
2019-05-09T16:45:22.737Z,17.53
2019-05-09T16:47:52.816Z,17.54
2019-05-09T16:50:22.967Z,17.40
2019-05-09T16:52:52.976Z,17.31
2019-05-09T16:55:31.340Z,17.17
2019-05-09T16:58:00.426Z,17.22
2019-05-09T17:00:40.099Z,17.16
2019-05-09T17:03:12.051Z,17.14
2019-05-09T17:05:41.958Z,17.01
2019-05-09T17:08:12.020Z,17.01
2019-05-09T17:10:41.870Z,16.99
2019-05-09T17:13:11.982Z,17.00
2019-05-09T17:15:43.272Z,16.96
2019-05-09T17:18:13.287Z,16.88
2019-05-09T17:21:15.118Z,16.96
2019-05-09T17:23:34.850Z,16.88
2019-05-09T17:26:05.495Z,16.95
2019-05-09T17:28:37.599Z,17.09
2019-05-09T17:31:08.636Z,17.12
2019-05-09T17:33:38.955Z,17.05
2019-05-09T17:36:09.428Z,17.08
2019-05-09T17:38:39.546Z,17.04
2019-05-09T17:41:09.742Z,17.07
2019-05-09T17:43:42.725Z,17.05
2019-05-09T17:46:14.136Z,16.93
2019-05-09T17:48:47.940Z,16.93
2019-05-09T17:51:32.330Z,16.86
2019-05-09T17:53:51.755Z,16.86
2019-05-09T17:56:24.123Z,16.91
2019-05-09T17:58:54.933Z,16.88
2019-05-09T18:01:27.590Z,16.87
2019-05-09T18:03:59.018Z,16.84
2019-05-09T18:06:29.324Z,16.81
2019-05-09T18:09:04.501Z,16.80
2019-05-09T18:11:34.679Z,16.79
2019-05-09T18:14:04.728Z,16.81
2019-05-09T18:16:34.808Z,16.82
2019-05-09T18:19:07.971Z,16.79
2019-05-09T18:21:50.355Z,16.73
2019-05-09T18:24:10.653Z,16.70
2019-05-09T18:26:40.911Z,16.62
2019-05-09T18:29:11.332Z,16.53
2019-05-09T18:32:00.059Z,16.48
2019-05-09T18:34:30.264Z,16.35
2019-05-09T18:37:00.753Z,16.19
2019-05-09T18:39:31.124Z,16.05
2019-05-09T18:42:01.789Z,15.94
2019-05-09T18:44:32.086Z,15.86
2019-05-09T18:47:03.666Z,15.74
2019-05-09T18:49:35.788Z,15.60
2019-05-09T18:52:06.353Z,15.42
2019-05-09T18:54:37.476Z,15.26
2019-05-09T18:57:08.307Z,15.15
2019-05-09T18:59:38.872Z,15.07
2019-05-09T19:02:09.685Z,14.96
2019-05-09T19:04:40.471Z,14.85
2019-05-09T19:07:21.769Z,14.76
2019-05-09T19:09:43.096Z,14.67
2019-05-09T19:12:13.463Z,14.60
2019-05-09T19:14:46.234Z,14.52
2019-05-09T19:17:40.341Z,14.42
2019-05-09T19:20:44.644Z,14.33
2019-05-09T19:23:15.575Z,14.26
2019-05-09T19:25:46.134Z,14.23
2019-05-09T19:28:16.404Z,14.20
2019-05-09T19:30:46.826Z,14.18
2019-05-09T19:33:20.029Z,14.17
2019-05-09T19:35:50.839Z,14.16
2019-05-09T19:38:22.128Z,14.16
2019-05-09T19:40:52.324Z,14.19
2019-05-09T19:43:22.954Z,14.23
2019-05-09T19:45:53.127Z,14.29
2019-05-09T19:48:23.522Z,14.31
2019-05-09T19:50:53.960Z,14.27
2019-05-09T19:53:24.117Z,14.18
2019-05-09T19:55:54.652Z,14.17
2019-05-09T19:58:29.397Z,14.24
2019-05-09T20:00:59.468Z,14.21
2019-05-09T20:03:29.417Z,14.19
2019-05-09T20:05:59.841Z,14.22
2019-05-09T20:08:29.662Z,14.20
2019-05-09T20:11:17.364Z,14.20
2019-05-09T20:14:11.754Z,14.14
2019-05-09T20:16:44.635Z,14.11
2019-05-09T20:19:14.355Z,14.07
2019-05-09T20:21:44.313Z,14.09
2019-05-09T20:24:20.060Z,14.04
2019-05-09T20:26:49.873Z,14.03
2019-05-09T20:29:19.968Z,14.01
2019-05-09T20:31:52.375Z,14.03
2019-05-09T20:34:22.493Z,14.07
2019-05-09T20:36:52.477Z,14.07
2019-05-09T20:39:25.607Z,13.98
2019-05-09T20:41:56.110Z,13.99
2019-05-09T20:44:27.274Z,13.99
2019-05-09T20:46:57.529Z,13.94
2019-05-09T20:49:30.642Z,13.93
2019-05-09T20:52:02.868Z,13.86
2019-05-09T20:54:33.052Z,13.82
2019-05-09T20:57:03.037Z,13.78
2019-05-09T20:59:33.080Z,13.74
2019-05-09T21:02:03.592Z,13.68
2019-05-09T21:04:36.126Z,13.66
2019-05-09T21:07:06.813Z,13.65
2019-05-09T21:09:37.173Z,13.63
2019-05-09T21:12:09.222Z,13.58
2019-05-09T21:14:39.355Z,13.58
2019-05-09T21:17:09.584Z,13.52
2019-05-09T21:19:39.725Z,13.56
2019-05-09T21:22:10.431Z,13.55
2019-05-09T21:24:40.449Z,13.51
2019-05-09T21:27:10.417Z,13.49
2019-05-09T21:29:40.466Z,13.47
2019-05-09T21:32:10.442Z,13.40
2019-05-09T21:34:40.302Z,13.37
2019-05-09T21:37:13.672Z,13.23
2019-05-09T21:39:41.725Z,13.21
2019-05-09T21:42:11.647Z,13.27
2019-05-09T21:44:41.678Z,13.17
2019-05-09T21:47:11.573Z,13.16
2019-05-09T21:49:41.649Z,13.13
2019-05-09T21:52:11.524Z,13.10
2019-05-09T21:54:41.761Z,13.06
2019-05-09T21:57:11.931Z,12.99
2019-05-09T21:59:42.172Z,12.88
2019-05-09T22:02:13.469Z,12.95
2019-05-09T22:04:43.590Z,12.94
2019-05-09T22:07:13.672Z,12.96
2019-05-09T22:09:43.714Z,12.86
2019-05-09T22:12:13.662Z,12.90
2019-05-09T22:14:43.863Z,12.83
2019-05-09T22:17:18.092Z,12.84
2019-05-09T22:19:47.987Z,12.83
2019-05-09T22:22:18.049Z,12.85
2019-05-09T22:24:47.896Z,12.77
2019-05-09T22:27:18.084Z,12.81
2019-05-09T22:29:48.102Z,12.84
2019-05-09T22:32:21.865Z,12.77
2019-05-09T22:34:50.330Z,12.78
2019-05-09T22:37:20.174Z,12.71
2019-05-09T22:39:50.006Z,12.62
2019-05-09T22:42:20.321Z,12.52
2019-05-09T22:44:50.207Z,12.48
2019-05-09T22:47:20.071Z,12.47
2019-05-09T22:49:52.555Z,12.49
2019-05-09T22:52:21.642Z,12.48
2019-05-09T22:54:51.414Z,12.42
2019-05-09T22:57:21.683Z,12.45
2019-05-09T22:59:51.896Z,12.39
2019-05-09T23:02:21.668Z,12.42
2019-05-09T23:04:51.762Z,12.42
2019-05-09T23:07:21.725Z,12.43
2019-05-09T23:09:52.064Z,12.42
2019-05-09T23:12:22.007Z,12.45
2019-05-09T23:14:52.678Z,12.43
2019-05-09T23:17:22.785Z,12.49
2019-05-09T23:19:52.652Z,12.56
2019-05-09T23:22:24.380Z,12.50
2019-05-09T23:24:54.299Z,12.42
2019-05-09T23:27:24.125Z,12.36
2019-05-09T23:29:54.095Z,12.35
2019-05-09T23:32:32.711Z,12.33
2019-05-09T23:35:03.158Z,12.35
2019-05-09T23:37:33.361Z,12.30
2019-05-09T23:40:08.323Z,12.38
2019-05-09T23:42:38.409Z,12.41
2019-05-09T23:45:08.487Z,12.46
2019-05-09T23:47:38.390Z,12.35
2019-05-09T23:50:08.531Z,12.38
2019-05-09T23:52:38.961Z,12.40
2019-05-09T23:55:26.351Z,12.43
2019-05-09T23:58:13.939Z,12.38
